Time;durP1;ratioP1;P1;durP2;ratioP2;P2;SDS_P1;SDS_P2;PMS_P1;PMS_P2;Temp;Humidity;BMP_temperature;BMP_pressure;BME280_temperature;BME280_humidity;BME280_pressure;Samples;Min_cycle;Max_cycle;Signal;HPM_P1;HPM_P2
2022/06/20 00:00:46;;;;;;;5.10;2.35;;;;;;;19.29;55.54;98482.25;4484474;32;20112;-71
2022/06/20 00:03:23;;;;;;;2.70;2.10;;;;;;;19.25;55.41;98473.03;4485855;31;20107;-71
2022/06/20 00:05:51;;;;;;;2.95;2.42;;;;;;;19.25;55.57;98473.03;4485737;31;20136;-70
2022/06/20 00:08:19;;;;;;;9.20;3.05;;;;;;;19.22;55.97;98462.81;4485758;31;20100;-70
2022/06/20 00:10:46;;;;;;;6.03;2.67;;;;;;;19.18;56.78;98474.84;4485656;31;20084;-71
2022/06/20 00:13:26;;;;;;;3.00;2.70;;;;;;;19.26;57.08;98468.56;4485709;31;20104;-70
2022/06/20 00:16:00;;;;;;;6.50;2.90;;;;;;;19.44;57.36;98465.31;4484491;32;20100;-70
2022/06/20 00:18:29;;;;;;;7.53;2.65;;;;;;;19.36;57.07;98463.66;4484279;32;20087;-71
2022/06/20 00:20:57;;;;;;;4.47;2.70;;;;;;;19.33;57.67;98459.59;4485504;31;20156;-70
2022/06/20 00:23:24;;;;;;;2.85;2.50;;;;;;;19.18;57.70;98456.25;4485550;31;20107;-71
2022/06/20 00:25:51;;;;;;;3.22;2.65;;;;;;;19.13;57.97;98453.41;4485470;31;20149;-70
2022/06/20 00:28:19;;;;;;;8.10;3.08;;;;;;;19.08;58.61;98461.16;4484377;32;20101;-71
2022/06/20 00:30:47;;;;;;;3.90;2.78;;;;;;;18.97;59.68;98451.94;4484423;32;20146;-70
2022/06/20 00:33:14;;;;;;;4.47;2.80;;;;;;;18.87;60.41;98451.47;4485786;31;20088;-70
2022/06/20 00:35:42;;;;;;;5.45;2.45;;;;;;;18.80;60.68;98454.91;4485493;32;20093;-71
2022/06/20 00:38:16;;;;;;;4.32;2.50;;;;;;;18.78;60.91;98451.59;4484242;32;20533;-71
2022/06/20 00:40:47;;;;;;;5.50;2.35;;;;;;;18.82;60.77;98449.38;4485597;31;20145;-71
2022/06/20 00:43:39;;;;;;;3.83;2.50;;;;;;;18.83;60.61;98451.00;4484304;32;20141;-70
2022/06/20 00:46:10;;;;;;;3.33;2.55;;;;;;;18.82;61.05;98451.19;4485704;32;20093;-70
2022/06/20 00:48:44;;;;;;;4.93;2.83;;;;;;;18.80;60.74;98449.59;4484131;32;20147;-71
2022/06/20 00:51:18;;;;;;;6.25;2.78;;;;;;;18.80;61.27;98448.75;4483980;32;20107;-70
2022/06/20 00:53:52;;;;;;;3.75;2.70;;;;;;;18.79;61.35;98441.81;4484344;32;20079;-71
2022/06/20 00:56:27;;;;;;;3.20;2.45;;;;;;;18.75;61.89;98435.28;4485368;31;20095;-71
2022/06/20 00:59:11;;;;;;;5.53;2.60;;;;;;;18.69;63.27;98433.41;4485732;31;20080;-70
2022/06/20 01:01:39;;;;;;;;;;;;;;;18.56;63.36;98427.03;4484092;32;20424;-70
2022/06/20 01:04:21;;;;;;;3.60;2.50;;;;;;;18.57;63.66;98427.84;4485496;31;20035;-71
2022/06/20 01:06:54;;;;;;;6.82;3.22;;;;;;;18.56;63.78;98424.38;4484122;32;20093;-71
2022/06/20 01:09:28;;;;;;;4.18;2.83;;;;;;;18.44;64.54;98420.66;4485393;31;20081;-71
2022/06/20 01:11:57;;;;;;;4.10;2.55;;;;;;;18.30;65.00;98417.09;4483975;32;20092;-71
2022/06/20 01:14:34;;;;;;;6.90;2.72;;;;;;;18.32;64.30;98423.03;4485340;31;20080;-71
2022/06/20 01:17:11;;;;;;;5.37;2.50;;;;;;;18.32;64.04;98419.53;4485307;32;20085;-70
2022/06/20 01:19:51;;;;;;;5.30;2.70;;;;;;;18.34;64.21;98406.94;4483981;32;20156;-71
2022/06/20 01:22:43;;;;;;;6.40;2.33;;;;;;;18.46;64.88;98408.00;4485392;32;20088;-71
2022/06/20 01:25:30;;;;;;;5.20;2.90;;;;;;;18.72;63.12;98404.62;4485120;31;20084;-70
2022/06/20 01:27:59;;;;;;;2.50;2.30;;;;;;;18.92;62.71;98388.78;4451556;32;20127;-70
2022/06/20 01:30:28;;;;;;;5.50;2.50;;;;;;;18.78;63.56;98382.59;4451362;32;20208;-71
2022/06/20 01:32:57;;;;;;;5.37;2.40;;;;;;;18.80;63.91;98377.94;4437606;32;20105;-71
2022/06/20 01:38:13;;;;;;;4.20;2.17;;;;;;;18.92;62.82;98380.81;4435939;32;20744;-70
2022/06/20 01:42:18;;;;;;;3.50;2.53;;;;;;;19.02;62.19;98387.63;4435839;32;20097;-70
2022/06/20 01:43:33;;;;;;;3.62;2.55;;;;;;;19.12;61.80;98388.03;4425832;32;20123;-70
2022/06/20 01:46:05;;;;;;;4.15;2.60;;;;;;;19.13;61.77;98384.34;4435902;32;20101;-70
2022/06/20 01:48:32;;;;;;;3.90;2.10;;;;;;;19.11;62.08;98375.78;4423600;32;20159;-70
2022/06/20 01:51:01;;;;;;;4.72;2.55;;;;;;;18.97;62.34;98377.59;4435560;32;20112;-71
2022/06/20 01:53:32;;;;;;;4.12;2.80;;;;;;;18.91;63.37;98381.88;4423322;32;20097;-70
2022/06/20 01:56:00;;;;;;;2.97;2.58;;;;;;;18.79;63.54;98389.56;4423076;32;20522;-70
2022/06/20 01:58:32;;;;;;;3.67;2.30;;;;;;;18.75;63.84;98382.19;4423352;32;20159;-70
2022/06/20 02:01:01;;;;;;;2.75;2.45;;;;;;;18.86;62.80;98376.31;4435723;32;20129;-70
2022/06/20 02:03:32;;;;;;;7.70;2.47;;;;;;;18.93;62.41;98369.19;4435852;32;20127;-70
2022/06/20 02:06:00;;;;;;;4.53;2.75;;;;;;;19.08;61.64;98374.34;4477554;32;20175;-71
2022/06/20 02:08:28;;;;;;;4.40;2.67;;;;;;;19.11;61.61;98363.31;4483565;32;20499;-70
2022/06/20 02:11:05;;;;;;;2.75;2.40;;;;;;;19.20;61.63;98368.41;4484739;31;20130;-70
2022/06/20 02:13:41;;;;;;;4.45;2.65;;;;;;;19.21;61.54;98352.28;4483958;31;20088;-70
2022/06/20 02:16:11;;;;;;;3.28;2.53;;;;;;;19.30;61.61;98352.91;4483520;32;20405;-71
2022/06/20 02:18:40;;;;;;;4.93;2.53;;;;;;;19.26;61.61;98349.03;4483473;32;20092;-70
2022/06/20 02:21:12;;;;;;;4.10;2.55;;;;;;;19.34;61.80;98348.84;4483010;32;20092;-70
2022/06/20 02:23:43;;;;;;;3.03;2.30;;;;;;;19.34;61.95;98343.53;4483579;32;20116;-71
2022/06/20 02:26:10;;;;;;;4.60;2.87;;;;;;;19.33;62.41;98347.19;4483042;32;20085;-70
2022/06/20 02:28:47;;;;;;;5.95;2.87;;;;;;;19.24;63.01;98346.59;4483390;32;20088;-71
2022/06/20 02:31:15;;;;;;;10.40;2.65;;;;;;;19.15;63.36;98345.97;4484700;32;20099;-70
2022/06/20 02:33:43;;;;;;;7.78;2.90;;;;;;;19.00;64.10;98345.34;4483370;32;20099;-70
2022/06/20 02:36:10;;;;;;;3.80;2.90;;;;;;;19.02;64.44;98345.13;4484497;32;20466;-70
2022/06/20 02:38:38;;;;;;;4.93;3.05;;;;;;;19.02;64.59;98337.19;4484501;32;20126;-71
2022/06/20 02:41:06;;;;;;;5.60;2.92;;;;;;;18.94;65.27;98333.69;4484566;31;20152;-71
2022/06/20 02:43:49;;;;;;;4.05;2.70;;;;;;;18.90;65.42;98332.44;4484344;31;20540;-71
2022/06/20 02:46:19;;;;;;;4.72;2.90;;;;;;;18.76;66.27;98330.78;4483210;32;20110;-71
2022/06/20 02:48:50;;;;;;;3.30;2.85;;;;;;;18.62;66.78;98324.59;4483058;32;20084;-70
2022/06/20 02:51:21;;;;;;;6.65;2.80;;;;;;;18.59;67.09;98333.78;4483992;31;20119;-70
2022/06/20 02:53:52;;;;;;;6.35;3.03;;;;;;;18.51;67.43;98338.44;4483157;32;20136;-70
2022/06/20 02:56:21;;;;;;;5.50;2.65;;;;;;;18.38;68.18;98333.88;4484333;32;20144;-71
2022/06/20 02:58:51;;;;;;;8.00;3.47;;;;;;;18.40;68.36;98337.19;4483237;32;20076;-70
2022/06/20 03:01:45;;;;;;;4.53;2.90;;;;;;;18.32;68.79;98345.28;4482760;32;20097;-70
2022/06/20 03:04:13;;;;;;;3.95;2.90;;;;;;;18.26;69.37;98345.06;4483306;32;20420;-71
2022/06/20 03:06:42;;;;;;;5.68;3.58;;;;;;;18.18;69.91;98345.25;4482833;32;20401;-70
2022/06/20 03:09:12;;;;;;;13.52;3.60;;;;;;;18.14;70.19;98338.69;4483041;32;20123;-71
2022/06/20 03:11:40;;;;;;;7.68;3.28;;;;;;;18.11;70.68;98330.31;4483922;32;20190;-71
2022/06/20 03:14:12;;;;;;;6.25;3.20;;;;;;;18.04;71.23;98332.94;4482883;32;20100;-71
2022/06/20 03:16:40;;;;;;;6.30;3.37;;;;;;;18.03;71.50;98339.25;4469878;32;20218;-70
2022/06/20 03:19:13;;;;;;;6.12;3.35;;;;;;;18.03;71.78;98341.88;4482492;32;20127;-70
2022/06/20 03:21:41;;;;;;;8.65;3.10;;;;;;;18.22;71.43;98330.56;4483895;31;20104;-71
2022/06/20 03:24:12;;;;;;;7.07;3.50;;;;;;;18.55;70.05;98318.47;4483632;32;20123;-70
2022/06/20 03:26:40;;;;;;;6.43;3.47;;;;;;;18.89;68.28;98319.38;4484943;32;20100;-71
2022/06/20 03:29:12;;;;;;;7.35;3.60;;;;;;;19.18;67.20;98318.16;4486029;32;20572;-70
2022/06/20 03:31:39;;;;;;;4.72;3.20;;;;;;;19.46;65.84;98323.28;4484942;32;20138;-71
2022/06/20 03:34:07;;;;;;;6.37;3.20;;;;;;;19.61;65.09;98323.06;4485980;32;20818;-71
2022/06/20 03:36:34;;;;;;;6.93;3.08;;;;;;;19.83;64.51;98321.03;4486069;31;20101;-70
2022/06/20 03:39:04;;;;;;;5.62;3.70;;;;;;;19.96;63.99;98316.69;4485909;31;20515;-71
2022/06/20 03:41:32;;;;;;;4.80;3.22;;;;;;;20.07;62.90;98315.22;4484526;32;20092;-71
2022/06/20 03:44:05;;;;;;;7.87;3.62;;;;;;;20.15;62.95;98317.66;4485831;31;20127;-71
2022/06/20 03:46:42;;;;;;;4.80;3.20;;;;;;;20.32;62.65;98310.84;4484826;32;20089;-70
2022/06/20 03:49:16;;;;;;;7.07;3.22;;;;;;;20.45;62.30;98309.94;4484454;32;20146;-71
2022/06/20 03:51:46;;;;;;;8.73;3.60;;;;;;;20.50;62.25;98311.97;4484773;32;20092;-71
2022/06/20 03:54:28;;;;;;;8.00;3.70;;;;;;;20.42;62.08;98314.88;4484530;32;20168;-70
2022/06/20 03:57:06;;;;;;;8.98;3.55;;;;;;;20.45;62.42;98323.25;4484868;32;20088;-70
2022/06/20 03:59:47;;;;;;;12.32;3.62;;;;;;;20.56;62.06;98321.78;4484784;32;20694;-71
2022/06/20 04:02:40;;;;;;;8.70;3.60;;;;;;;20.45;61.59;98317.94;4484676;32;20127;-71
2022/06/20 04:05:15;;;;;;;5.85;3.03;;;;;;;20.65;61.45;98317.88;4486056;31;20084;-71
2022/06/20 04:08:00;;;;;;;5.35;3.35;;;;;;;20.78;61.85;98313.50;4484322;32;20126;-71
2022/06/20 04:10:58;;;;;;;6.75;3.42;;;;;;;21.00;59.86;98312.12;4484216;32;20126;-71
2022/06/20 04:13:40;;;;;;;4.30;3.25;;;;;;;21.06;59.61;98313.91;4485178;31;20145;-70
2022/06/20 04:16:15;;;;;;;5.72;3.20;;;;;;;21.18;59.26;98321.19;4483814;32;20442;-71
2022/06/20 04:18:52;;;;;;;9.15;3.53;;;;;;;21.26;58.72;98318.28;4483582;32;20105;-71
2022/06/20 04:21:49;;;;;;;5.62;3.25;;;;;;;21.40;58.45;98329.63;4482609;32;20525;-71
2022/06/20 04:24:35;;;;;;;8.32;3.70;;;;;;;21.57;58.40;98332.59;4479775;32;20100;-71
2022/06/20 04:27:18;;;;;;;6.15;3.15;;;;;;;21.69;57.54;98327.38;4484533;31;20152;-71
2022/06/20 04:29:52;;;;;;;6.35;3.50;;;;;;;21.92;57.92;98326.72;4484221;32;20076;-71
2022/06/20 04:32:30;;;;;;;5.78;3.20;;;;;;;22.06;57.85;98322.88;4485322;31;20112;-71
2022/06/20 04:35:01;;;;;;;5.12;3.00;;;;;;;22.20;57.27;98328.06;4483478;32;20104;-71
2022/06/20 04:37:30;;;;;;;8.40;3.37;;;;;;;22.09;57.51;98327.75;4483298;32;20157;-71
2022/06/20 04:40:10;;;;;;;3.40;2.95;;;;;;;22.20;55.93;98322.72;4483766;31;20109;-71
2022/06/20 04:42:39;;;;;;;6.00;3.10;;;;;;;22.41;56.04;98322.28;4483811;31;20073;-71
2022/06/20 04:45:34;;;;;;;9.93;4.05;;;;;;;22.57;56.32;98320.03;4482342;32;20549;-71
2022/06/20 04:48:06;;;;;;;6.25;3.10;;;;;;;22.70;55.55;98321.72;4480005;32;20126;-71
2022/06/20 04:50:34;;;;;;;5.97;3.35;;;;;;;22.87;54.20;98317.34;4484525;31;20176;-71
2022/06/20 04:53:08;;;;;;;4.28;3.00;;;;;;;23.04;56.47;98314.81;4470541;32;20089;-71
2022/06/20 04:55:39;;;;;;;6.62;3.22;;;;;;;23.09;52.93;98308.78;4485255;32;20096;-71
2022/06/20 04:58:10;;;;;;;5.75;2.95;;;;;;;23.27;54.54;98311.41;4484890;32;20088;-71
2022/06/20 05:00:40;;;;;;;7.40;3.15;;;;;;;23.31;54.72;98314.44;4483163;32;20139;-71
2022/06/20 05:03:12;;;;;;;7.45;3.62;;;;;;;23.25;53.84;98323.38;4484028;32;20143;-71
2022/06/20 05:05:44;;;;;;;6.57;3.20;;;;;;;23.16;53.12;98317.53;4483272;32;20118;-71
2022/06/20 05:08:13;;;;;;;8.02;2.92;;;;;;;23.48;53.75;98318.06;4483854;32;20138;-71
2022/06/20 05:11:02;;;;;;;11.55;3.20;;;;;;;23.62;52.59;98312.47;4485018;32;20093;-71
2022/06/20 05:13:43;;;;;;;7.75;2.72;;;;;;;23.74;52.83;98321.31;4478852;32;20088;-71
2022/06/20 05:16:16;;;;;;;6.97;3.42;;;;;;;23.57;52.29;98321.19;4478071;32;20104;-71
2022/06/20 05:18:45;;;;;;;;;;;;;;;23.79;54.15;98324.09;4476556;32;20408;-71
2022/06/20 05:21:23;;;;;;;8.63;2.78;;;;;;;24.07;52.63;98326.06;4478325;31;19979;-71
2022/06/20 05:23:54;;;;;;;7.95;3.30;;;;;;;24.26;52.28;98332.06;4483185;32;20596;-71
2022/06/20 05:26:28;;;;;;;6.55;3.08;;;;;;;24.41;52.95;98339.59;4482761;32;20096;-71
2022/06/20 05:28:57;;;;;;;6.32;3.22;;;;;;;24.29;49.82;98329.97;4483498;32;20126;-71
2022/06/20 05:31:32;;;;;;;6.68;3.08;;;;;;;24.52;50.14;98331.75;4483165;32;20084;-71
2022/06/20 05:34:10;;;;;;;9.77;3.08;;;;;;;24.73;51.25;98343.69;4481539;32;20113;-71
2022/06/20 05:37:00;;;;;;;6.12;3.20;;;;;;;24.81;48.81;98345.97;4480662;32;20162;-71
2022/06/20 05:39:33;;;;;;;10.98;3.28;;;;;;;24.84;51.42;98334.78;4469221;32;20889;-71
2022/06/20 05:42:01;;;;;;;5.80;3.08;;;;;;;24.95;48.87;98341.13;4474592;32;20118;-71
2022/06/20 05:44:29;;;;;;;9.57;3.17;;;;;;;24.92;50.19;98345.13;4483449;32;20111;-71
2022/06/20 05:47:23;;;;;;;7.47;3.10;;;;;;;25.07;50.05;98336.53;4483671;32;20081;-71
2022/06/20 05:49:56;;;;;;;8.32;3.40;;;;;;;25.17;49.20;98333.19;4484323;31;20104;-71
2022/06/20 05:52:25;;;;;;;7.68;2.53;;;;;;;25.24;50.01;98339.22;4478848;31;20102;-72
2022/06/20 05:55:13;;;;;;;7.68;2.72;;;;;;;25.29;51.40;98330.44;4473756;32;20157;-71
2022/06/20 05:57:42;;;;;;;9.38;2.62;;;;;;;25.22;47.84;98344.00;4476600;32;20347;-71
2022/06/20 06:00:22;;;;;;;3.62;2.80;;;;;;;25.42;50.93;98345.41;4478843;32;20124;-71
2022/06/20 06:03:09;;;;;;;4.75;2.70;;;;;;;25.57;48.83;98355.56;4473387;32;20143;-71
2022/06/20 06:05:49;;;;;;;4.18;3.08;;;;;;;25.62;46.79;98355.66;4480860;32;20097;-71
2022/06/20 06:08:26;;;;;;;11.10;3.10;;;;;;;25.83;49.40;98351.41;4481386;32;20461;-71
2022/06/20 06:11:23;;;;;;;11.68;3.25;;;;;;;25.79;48.84;98351.06;4475460;32;20089;-71
2022/06/20 06:14:20;;;;;;;5.22;3.10;;;;;;;25.98;47.61;98358.84;4480952;32;20148;-71
2022/06/20 06:17:03;;;;;;;5.50;2.90;;;;;;;26.07;49.54;98356.56;4478274;32;20134;-71
2022/06/20 06:19:53;;;;;;;5.28;3.47;;;;;;;26.10;47.24;98356.91;4478324;32;20092;-71
2022/06/20 06:22:43;;;;;;;8.40;3.47;;;;;;;26.27;46.24;98348.78;4484165;31;20118;-71
2022/06/20 06:25:19;;;;;;;9.52;3.45;;;;;;;26.34;47.73;98344.06;4477545;32;20165;-72
2022/06/20 06:27:47;;;;;;;5.70;3.25;;;;;;;26.31;47.94;98347.22;4475000;32;20157;-72
2022/06/20 06:30:20;;;;;;;5.07;3.05;;;;;;;26.21;48.00;98347.09;4479765;32;20130;-72
2022/06/20 06:33:02;;;;;;;13.93;3.55;;;;;;;26.28;45.56;98339.66;4484302;31;20181;-71
2022/06/20 06:35:34;;;;;;;8.85;4.25;;;;;;;26.58;47.32;98342.97;4479885;32;20100;-71
2022/06/20 06:38:06;;;;;;;8.95;3.67;;;;;;;26.69;46.01;98337.47;4483058;31;20111;-71
2022/06/20 06:40:35;;;;;;;12.57;4.95;;;;;;;26.54;47.02;98339.94;4480809;32;20100;-72
2022/06/20 06:43:12;;;;;;;7.70;3.95;;;;;;;26.48;46.94;98344.47;4478555;31;20146;-72
2022/06/20 06:45:41;;;;;;;5.53;3.40;;;;;;;26.70;45.79;98344.47;4482583;31;20130;-72
2022/06/20 06:48:45;;;;;;;8.77;4.35;;;;;;;26.87;46.74;98340.88;4479414;32;20143;-72
2022/06/20 06:51:17;;;;;;;10.85;4.07;;;;;;;26.90;47.80;98348.41;4445298;32;20508;-72
2022/06/20 06:53:48;;;;;;;5.12;4.30;;;;;;;27.02;45.56;98354.44;4449061;32;20129;-72
2022/06/20 06:56:47;;;;;;;11.57;4.03;;;;;;;27.01;46.48;98354.69;4429315;32;20089;-72
2022/06/20 06:59:28;;;;;;;14.32;3.87;;;;;;;27.05;46.36;98345.06;4421075;32;20105;-72
2022/06/20 07:02:00;;;;;;;7.12;3.30;;;;;;;27.02;45.26;98341.00;4430350;32;20472;-71
2022/06/20 07:05:00;;;;;;;9.73;3.55;;;;;;;26.82;48.63;98338.13;4446893;32;20100;-71
2022/06/20 07:07:37;;;;;;;10.23;4.05;;;;;;;27.01;47.18;98331.34;4395706;32;20101;-71
2022/06/20 07:10:07;;;;;;;6.97;3.70;;;;;;;26.72;48.88;98323.53;4398374;32;20538;-71
2022/06/20 07:12:44;;;;;;;6.95;4.03;;;;;;;26.66;49.08;98321.88;4391560;32;20121;-71
2022/06/20 07:15:23;;;;;;;5.87;3.70;;;;;;;26.62;49.14;98320.72;4387222;32;20102;-71
2022/06/20 07:17:54;;;;;;;15.00;3.55;;;;;;;26.63;49.93;98318.81;4384867;32;20177;-71
2022/06/20 07:20:24;;;;;;;7.43;3.70;;;;;;;26.55;48.92;98309.34;4397246;32;20186;-71
2022/06/20 07:22:52;;;;;;;8.00;3.83;;;;;;;26.74;47.87;98318.72;4403003;32;20224;-71
2022/06/20 07:25:35;;;;;;;5.85;4.05;;;;;;;26.97;48.29;98311.41;4387802;32;20228;-71
2022/06/20 07:28:09;;;;;;;14.45;4.45;;;;;;;27.19;48.03;98308.63;4418377;32;20717;-71
2022/06/20 07:30:55;;;;;;;13.45;3.85;;;;;;;26.88;48.02;98310.25;4421275;32;20156;-71
2022/06/20 07:33:27;;;;;;;4.25;3.83;;;;;;;27.12;48.20;98312.56;4408421;32;20429;-70
2022/06/20 07:35:56;;;;;;;6.20;3.92;;;;;;;27.37;49.49;98310.13;4412573;32;20409;-71
2022/06/20 07:39:08;;;;;;;6.28;3.83;;;;;;;27.42;46.25;98307.47;4408035;32;20117;-71
2022/06/20 07:41:41;;;;;;;5.53;4.00;;;;;;;27.24;47.80;98305.16;4383420;32;20204;-71
2022/06/20 07:44:17;;;;;;;7.53;4.07;;;;;;;27.68;48.27;98293.37;4413740;32;20125;-71
2022/06/20 07:47:24;;;;;;;5.10;3.58;;;;;;;27.74;45.72;98286.97;4420390;32;20110;-71
2022/06/20 07:49:56;;;;;;;8.93;4.32;;;;;;;27.90;49.34;98290.50;4421066;32;20600;-71
2022/06/20 07:52:28;;;;;;;10.30;4.35;;;;;;;27.87;48.80;98296.44;4421194;32;20085;-71
2022/06/20 07:54:59;;;;;;;5.87;3.67;;;;;;;27.88;46.73;98298.06;4412242;32;20165;-71
2022/06/20 07:57:32;;;;;;;7.75;3.97;;;;;;;27.59;46.90;98287.69;4393370;32;20164;-71
2022/06/20 08:00:06;;;;;;;5.90;4.22;;;;;;;27.95;47.66;98301.31;4393710;32;20165;-71
2022/06/20 08:02:38;;;;;;;4.72;4.20;;;;;;;27.85;48.10;98290.50;4405844;32;20119;-71
2022/06/20 08:05:07;;;;;;;10.43;4.25;;;;;;;27.61;47.64;98288.22;4393019;32;20110;-71
2022/06/20 08:07:42;;;;;;;5.40;4.22;;;;;;;28.05;48.66;98290.59;4405792;32;20110;-71
2022/06/20 08:10:21;;;;;;;13.82;4.20;;;;;;;28.41;46.10;98290.72;4392699;32;20102;-71
2022/06/20 08:13:05;;;;;;;10.15;4.25;;;;;;;28.52;44.63;98280.78;4404145;32;20103;-71
2022/06/20 08:15:37;;;;;;;11.05;4.30;;;;;;;28.61;46.79;98289.19;4405303;32;21003;-71
2022/06/20 08:18:05;;;;;;;6.80;4.25;;;;;;;28.70;46.48;98279.50;4423557;32;20104;-71
2022/06/20 08:20:37;;;;;;;4.50;3.95;;;;;;;28.60;46.29;98276.78;4442871;32;20571;-70
2022/06/20 08:23:12;;;;;;;5.20;4.25;;;;;;;28.56;47.47;98281.06;4429344;32;20538;-71
2022/06/20 08:25:49;;;;;;;7.15;4.12;;;;;;;28.89;47.72;98273.56;4455789;32;20474;-71
2022/06/20 08:28:18;;;;;;;10.10;3.90;;;;;;;29.09;45.90;98268.19;4480042;32;20480;-71
2022/06/20 08:30:53;;;;;;;6.50;4.32;;;;;;;28.94;45.33;98268.19;4476132;32;20453;-71
2022/06/20 08:33:20;;;;;;;9.63;4.28;;;;;;;28.91;47.07;98268.75;4481528;32;20351;-71
2022/06/20 08:35:59;;;;;;;8.15;4.22;;;;;;;29.15;44.51;98263.59;4482461;31;20104;-71
2022/06/20 08:38:39;;;;;;;7.37;4.03;;;;;;;29.33;42.26;98267.66;4482305;32;20131;-72
2022/06/20 08:41:26;;;;;;;7.90;4.35;;;;;;;29.39;45.52;98271.97;4479467;32;20088;-71
2022/06/20 08:44:16;;;;;;;4.43;3.97;;;;;;;29.82;45.46;98268.91;4472373;31;20092;-71
2022/06/20 08:47:12;;;;;;;5.00;3.87;;;;;;;29.97;43.18;98268.03;4473784;32;20096;-71
2022/06/20 08:49:48;;;;;;;6.68;3.92;;;;;;;30.10;42.39;98264.75;4470925;32;20190;-71
2022/06/20 08:52:37;;;;;;;6.72;4.87;;;;;;;29.74;41.54;98268.34;4480930;31;20151;-71
2022/06/20 08:55:28;;;;;;;4.40;4.00;;;;;;;29.79;43.26;98264.81;4478362;32;20153;-70
2022/06/20 08:57:58;;;;;;;7.07;3.83;;;;;;;30.08;42.11;98267.72;4475370;32;20537;-71
2022/06/20 09:00:42;;;;;;;5.72;4.25;;;;;;;30.11;41.32;98263.63;4479118;31;20088;-69
2022/06/20 09:03:12;;;;;;;7.25;4.30;;;;;;;29.54;42.13;98261.13;4469545;31;20084;-70
2022/06/20 09:06:05;;;;;;;6.07;3.70;;;;;;;29.56;41.19;98255.47;4484151;31;20112;-70
2022/06/20 09:09:10;;;;;;;3.97;3.57;;;;;;;29.88;41.79;98257.00;4482747;32;20100;-71
2022/06/20 09:11:53;;;;;;;7.10;4.12;;;;;;;30.11;40.74;98250.13;4483723;32;20153;-70
2022/06/20 09:14:48;;;;;;;4.97;3.90;;;;;;;30.17;42.87;98240.91;4484152;31;20573;-70
2022/06/20 09:17:16;;;;;;;6.05;3.85;;;;;;;30.57;41.35;98251.81;4479648;31;154964;-70
2022/06/20 09:19:46;;;;;;;4.95;3.50;;;;;;;30.38;40.65;98238.09;4484930;31;20168;-70
2022/06/20 09:22:30;;;;;;;4.25;3.47;;;;;;;30.13;41.28;98237.19;4484155;31;20089;-70
2022/06/20 09:25:06;;;;;;;6.80;3.53;;;;;;;30.42;41.52;98228.38;4484546;31;20092;-71
2022/06/20 09:28:02;;;;;;;7.72;3.70;;;;;;;30.64;40.10;98216.31;4484756;31;20088;-71
2022/06/20 09:30:56;;;;;;;8.65;4.10;;;;;;;30.55;38.39;98216.13;4451289;32;20192;-71
2022/06/20 09:33:35;;;;;;;4.07;3.67;;;;;;;30.15;40.74;98207.97;4450738;32;20109;-71
2022/06/20 09:36:14;;;;;;;7.25;3.75;;;;;;;30.46;39.99;98201.59;4450531;32;20097;-71
2022/06/20 09:39:08;;;;;;;4.62;3.62;;;;;;;30.78;36.82;98201.06;4449000;32;20123;-72
2022/06/20 09:41:49;;;;;;;7.28;3.60;;;;;;;30.86;38.83;98205.06;4431723;32;20499;-72
2022/06/20 09:44:35;;;;;;;7.28;3.60;;;;;;;30.89;36.35;98191.78;4450692;32;20097;-71
2022/06/20 09:47:11;;;;;;;4.28;3.62;;;;;;;31.14;37.76;98195.34;4436086;32;20104;-71
2022/06/20 09:50:07;;;;;;;5.75;3.47;;;;;;;31.16;36.94;98195.06;4450481;32;20088;-71
2022/06/20 09:53:22;;;;;;;5.90;3.60;;;;;;;31.19;34.19;98198.00;4390853;32;20177;-71
2022/06/20 09:56:06;;;;;;;4.20;3.40;;;;;;;31.24;37.64;98187.13;4375726;32;20484;-71
2022/06/20 09:58:55;;;;;;;5.28;3.67;;;;;;;31.20;36.16;98194.19;4362769;32;20141;-71
2022/06/20 10:01:55;;;;;;;4.47;3.50;;;;;;;31.30;34.97;98194.09;4374475;32;20157;-71
2022/06/20 10:04:34;;;;;;;3.85;3.40;;;;;;;31.43;34.84;98181.78;4362384;32;20123;-71
2022/06/20 10:07:31;;;;;;;6.12;3.78;;;;;;;31.58;33.25;98177.28;4374333;32;20141;-71
2022/06/20 10:10:07;;;;;;;5.72;3.85;;;;;;;31.91;37.56;98178.22;4404881;32;20148;-71
2022/06/20 10:12:59;;;;;;;6.70;4.22;;;;;;;31.91;37.25;98174.72;4392412;32;20159;-71
2022/06/20 10:15:27;;;;;;;7.28;3.83;;;;;;;32.09;37.93;98170.41;4404959;32;20488;-70
2022/06/20 10:18:21;;;;;;;4.68;3.78;;;;;;;32.07;38.04;98167.16;4406691;32;20185;-70
2022/06/20 10:21:07;;;;;;;5.37;3.85;;;;;;;31.72;37.27;98166.56;4392342;32;20528;-71
2022/06/20 10:24:02;;;;;;;4.30;3.00;;;;;;;31.80;37.12;98168.62;4404839;32;20109;-71
2022/06/20 10:26:45;;;;;;;4.87;2.80;;;;;;;31.99;32.86;98164.03;4404393;32;20106;-71
2022/06/20 10:29:24;;;;;;;3.58;3.28;;;;;;;32.01;30.90;98158.31;4438208;32;20659;-71
2022/06/20 10:32:17;;;;;;;3.80;3.15;;;;;;;32.14;35.36;98167.62;4446603;32;20122;-71
2022/06/20 10:35:15;;;;;;;6.45;2.80;;;;;;;32.31;32.99;98173.34;4470875;32;20137;-71
2022/06/20 10:37:45;;;;;;;3.40;3.10;;;;;;;32.37;32.48;98160.50;4484913;32;20116;-72
2022/06/20 10:40:45;;;;;;;3.30;3.00;;;;;;;32.59;31.11;98162.59;4473408;32;20084;-72
2022/06/20 10:43:47;;;;;;;10.02;3.30;;;;;;;32.63;32.72;98154.66;4482251;32;20097;-72
2022/06/20 10:46:17;;;;;;;7.28;3.10;;;;;;;32.69;34.49;98156.22;4442234;32;20202;-73
2022/06/20 10:49:02;;;;;;;3.90;3.25;;;;;;;32.86;33.50;98164.59;4442590;32;20167;-72
2022/06/20 10:52:02;;;;;;;3.33;2.90;;;;;;;33.01;34.08;98152.66;4441822;32;20105;-72
2022/06/20 10:54:48;;;;;;;4.35;2.85;;;;;;;32.99;30.71;98149.44;4442244;32;20486;-73
2022/06/20 10:57:37;;;;;;;4.65;3.08;;;;;;;33.10;30.18;98141.91;4442234;32;20872;-72
2022/06/20 11:00:11;;;;;;;3.08;2.53;;;;;;;33.00;32.37;98150.25;4442920;32;20143;-71
2022/06/20 11:02:47;;;;;;;5.05;3.00;;;;;;;33.23;33.17;98148.47;4442545;32;20155;-72
2022/06/20 11:05:26;;;;;;;4.87;2.70;;;;;;;33.29;31.45;98152.69;4441783;32;20097;-71
2022/06/20 11:08:16;;;;;;;2.87;2.58;;;;;;;33.26;28.88;98147.84;4442861;32;20144;-70
2022/06/20 11:11:08;;;;;;;3.78;2.90;;;;;;;33.18;28.29;98141.19;4430141;32;20179;-72
2022/06/20 11:14:13;;;;;;;3.20;2.90;;;;;;;33.13;29.84;98143.19;4429774;32;20132;-72
2022/06/20 11:16:59;;;;;;;4.47;2.70;;;;;;;33.13;29.86;98132.34;4438572;32;20096;-72
2022/06/20 11:19:49;;;;;;;4.47;2.85;;;;;;;33.20;29.71;98133.59;4434052;32;20123;-72
2022/06/20 11:22:39;;;;;;;5.90;3.03;;;;;;;33.39;29.19;98136.19;4466902;32;20852;-74
2022/06/20 11:25:51;;;;;;;2.83;2.58;;;;;;;33.46;30.15;98124.13;4481379;32;20092;-74
2022/06/20 11:28:50;;;;;;;4.80;2.70;;;;;;;33.37;29.82;98138.41;4431467;32;20234;-72
2022/06/20 11:31:36;;;;;;;7.05;2.78;;;;;;;33.62;30.08;98128.13;4362993;32;20165;-72
2022/06/20 11:34:19;;;;;;;4.87;2.90;;;;;;;33.60;29.38;98125.69;4362948;32;20163;-74
2022/06/20 11:37:03;;;;;;;4.50;3.08;;;;;;;33.73;30.17;98126.00;4362040;32;20575;-73
2022/06/20 11:39:39;;;;;;;5.45;2.90;;;;;;;33.76;28.67;98136.25;4348721;32;20244;-73
2022/06/20 11:42:57;;;;;;;3.20;2.65;;;;;;;33.63;29.24;98129.72;4360092;32;20544;-73
2022/06/20 11:45:28;;;;;;;4.00;3.00;;;;;;;33.76;29.23;98128.94;4338775;33;20108;-72
2022/06/20 11:48:23;;;;;;;4.07;3.10;;;;;;;33.86;29.57;98132.53;4338129;33;20121;-72
2022/06/20 11:51:00;;;;;;;5.72;2.70;;;;;;;33.75;28.69;98127.31;4342568;33;20126;-73
2022/06/20 11:53:40;;;;;;;13.85;3.87;;;;;;;33.87;29.89;98125.97;4334624;33;20215;-72
2022/06/20 11:56:19;;;;;;;4.72;2.95;;;;;;;34.04;30.34;98128.03;4318097;33;20459;-72
2022/06/20 11:59:16;;;;;;;5.18;3.22;;;;;;;34.07;32.04;98133.66;4331010;33;20245;-73
2022/06/20 12:01:56;;;;;;;3.00;2.72;;;;;;;34.33;30.44;98130.34;4322670;33;20103;-72
2022/06/20 12:04:37;;;;;;;6.93;3.20;;;;;;;34.56;30.40;98119.47;4342880;32;20153;-72
2022/06/20 12:07:39;;;;;;;3.95;2.83;;;;;;;34.02;28.92;98117.47;4386841;32;20637;-72
2022/06/20 12:10:16;;;;;;;3.03;2.72;;;;;;;34.38;28.40;98124.78;4438720;32;20483;-73
2022/06/20 12:12:52;;;;;;;5.03;3.08;;;;;;;34.26;27.52;98119.09;4437431;32;20235;-73
2022/06/20 12:15:39;;;;;;;3.90;2.78;;;;;;;34.39;29.63;98115.53;4453992;31;20112;-74
2022/06/20 12:18:33;;;;;;;5.32;3.00;;;;;;;34.56;27.48;98109.38;4487764;31;20147;-74
2022/06/20 12:23:58;;;;;;;5.10;3.72;;;;;;;34.28;26.88;98114.19;4468093;32;20168;-73
2022/06/20 12:26:35;;;;;;;5.32;3.28;;;;;;;34.23;28.30;98108.81;4482006;32;20101;-74
2022/06/20 12:29:21;;;;;;;5.87;3.47;;;;;;;34.23;28.05;98109.63;4485141;31;20107;-74
2022/06/20 12:31:51;;;;;;;7.05;2.97;;;;;;;34.40;28.78;98095.37;4459388;32;20356;-74